createdAt,value
2019-05-01T00:02:04.405Z,31.30
2019-05-01T00:06:14.804Z,28.13
2019-05-01T00:10:24.138Z,31.20
2019-05-01T00:14:32.639Z,28.17
2019-05-01T00:18:41.127Z,29.97
2019-05-01T00:22:49.580Z,31.10
2019-05-01T00:26:58.079Z,32.00
2019-05-01T00:31:06.554Z,32.20
2019-05-01T00:35:15.040Z,31.57
2019-05-01T00:39:23.782Z,30.03
2019-05-01T00:43:32.266Z,32.00
2019-05-01T00:47:40.775Z,30.10
2019-05-01T00:51:49.265Z,27.75
2019-05-01T00:56:11.343Z,25.97
2019-05-01T01:00:24.178Z,29.17
2019-05-01T01:04:32.673Z,29.43
2019-05-01T01:08:41.190Z,28.83
2019-05-01T01:12:49.669Z,28.20
2019-05-01T01:16:58.143Z,33.60
2019-05-01T01:21:06.603Z,31.63
2019-05-01T01:25:15.378Z,29.10
2019-05-01T01:29:23.856Z,30.00
2019-05-01T01:33:32.340Z,28.93
2019-05-01T01:37:40.818Z,31.90
2019-05-01T01:41:49.374Z,31.55
2019-05-01T01:46:02.138Z,28.17
2019-05-01T01:50:10.647Z,32.13
2019-05-01T01:54:19.366Z,29.97
2019-05-01T01:58:28.206Z,30.70
2019-05-01T02:02:41.034Z,30.77
2019-05-01T02:06:50.856Z,29.37
2019-05-01T02:10:59.883Z,33.00
2019-05-01T02:15:08.495Z,29.27
2019-05-01T02:19:16.976Z,29.83
2019-05-01T02:23:25.676Z,33.67
2019-05-01T02:27:41.557Z,33.23
2019-05-01T02:31:53.007Z,29.07
2019-05-01T02:36:02.523Z,31.30
2019-05-01T02:40:30.787Z,32.27
2019-05-01T02:44:42.601Z,30.00
2019-05-01T02:49:08.961Z,32.90
2019-05-01T02:53:19.980Z,34.17
2019-05-01T02:57:29.753Z,36.33
2019-05-01T03:01:46.986Z,42.67
2019-05-01T03:05:49.459Z,37.57
2019-05-01T03:09:58.072Z,41.00
2019-05-01T03:14:09.862Z,41.67
2019-05-01T03:18:24.323Z,40.13
2019-05-01T03:22:35.042Z,42.27
2019-05-01T03:26:43.825Z,41.70
2019-05-01T03:30:52.296Z,56.93
2019-05-01T03:35:00.836Z,91.13
2019-05-01T03:39:09.388Z,93.73
2019-05-01T03:43:17.966Z,101.13
2019-05-01T03:47:26.798Z,83.60
2019-05-01T03:51:36.461Z,70.95
2019-05-01T03:55:45.422Z,56.93
2019-05-01T03:59:53.942Z,44.30
2019-05-01T04:08:21.091Z,107.17
2019-05-01T04:12:29.609Z,92.13
2019-05-01T04:16:39.409Z,87.07
2019-05-01T04:20:48.019Z,72.73
2019-05-01T04:24:56.563Z,65.40
2019-05-01T04:29:07.075Z,60.33
2019-05-01T04:33:17.529Z,69.73
2019-05-01T04:37:26.622Z,49.03
2019-05-01T04:41:35.835Z,61.83
2019-05-01T04:45:44.303Z,56.83
2019-05-01T04:49:53.315Z,90.13
2019-05-01T04:54:02.001Z,77.03
2019-05-01T04:58:11.638Z,99.62
2019-05-01T05:02:24.845Z,60.03
2019-05-01T05:06:33.395Z,55.50
2019-05-01T05:10:42.096Z,39.03
2019-05-01T05:14:55.436Z,57.60
2019-05-01T05:19:03.988Z,43.87
2019-05-01T05:23:12.703Z,39.85
2019-05-01T05:27:21.713Z,41.92
2019-05-01T05:31:30.798Z,53.60
2019-05-01T05:35:41.110Z,60.17
2019-05-01T05:39:51.226Z,48.83
2019-05-01T05:44:20.575Z,51.33
2019-05-01T05:48:29.019Z,50.50
2019-05-01T05:52:39.262Z,48.30
2019-05-01T05:56:51.211Z,52.00
2019-05-01T06:01:06.827Z,50.87
2019-05-01T06:05:37.566Z,75.83
2019-05-01T06:09:50.494Z,65.13
2019-05-01T06:14:04.711Z,78.30
2019-05-01T06:18:20.415Z,89.43
2019-05-01T06:22:34.416Z,71.03
2019-05-01T06:26:43.115Z,84.73
2019-05-01T06:30:51.584Z,92.80
2019-05-01T06:35:03.039Z,80.80
2019-05-01T06:39:11.762Z,82.50
2019-05-01T06:43:28.675Z,67.93
2019-05-01T06:47:43.159Z,69.93
2019-05-01T06:51:53.382Z,79.60
2019-05-01T06:56:01.472Z,77.77
2019-05-01T07:00:13.244Z,68.30
2019-05-01T07:04:22.096Z,51.40
2019-05-01T07:08:34.188Z,67.43
2019-05-01T07:12:41.151Z,54.60
2019-05-01T07:16:50.025Z,63.80
2019-05-01T07:20:58.559Z,51.50
2019-05-01T07:25:09.234Z,68.70
2019-05-01T07:29:19.355Z,67.50
2019-05-01T07:33:28.835Z,57.87
2019-05-01T07:37:37.693Z,55.60
2019-05-01T07:41:46.587Z,54.40
2019-05-01T07:45:56.878Z,50.73
2019-05-01T07:50:08.446Z,46.40
2019-05-01T07:54:17.239Z,46.80
2019-05-01T07:58:25.910Z,51.07
2019-05-01T08:02:34.388Z,52.57
2019-05-01T08:06:42.878Z,50.57
2019-05-01T08:10:51.364Z,50.03
2019-05-01T08:14:59.869Z,48.63
2019-05-01T08:19:18.847Z,47.77
2019-05-01T08:23:27.326Z,49.23
2019-05-01T08:27:37.467Z,47.43
2019-05-01T08:31:50.090Z,41.73
2019-05-01T08:36:17.914Z,42.40
2019-05-01T08:40:26.399Z,40.47
2019-05-01T08:44:36.512Z,41.50
2019-05-01T08:48:46.699Z,49.67
2019-05-01T08:52:55.181Z,41.20
2019-05-01T08:57:03.839Z,43.57
2019-05-01T09:01:15.081Z,50.10
2019-05-01T09:05:28.717Z,49.27
2019-05-01T09:09:33.872Z,44.73
2019-05-01T09:13:42.992Z,50.00
2019-05-01T09:17:51.792Z,51.00
2019-05-01T09:22:00.634Z,44.00
2019-05-01T09:26:16.107Z,46.37
2019-05-01T09:30:26.971Z,46.47
2019-05-01T09:34:35.798Z,49.67
2019-05-01T09:38:44.319Z,47.20
2019-05-01T09:42:54.631Z,46.50
2019-05-01T09:47:03.075Z,51.70
2019-05-01T09:51:28.159Z,52.80
2019-05-01T09:55:38.278Z,47.37
2019-05-01T09:59:46.771Z,49.83
2019-05-01T10:03:56.454Z,52.60
2019-05-01T10:08:05.461Z,50.17
2019-05-01T10:12:14.063Z,50.83
2019-05-01T10:16:22.783Z,50.77
2019-05-01T10:20:31.366Z,52.23
2019-05-01T10:24:39.827Z,54.15
2019-05-01T10:28:51.528Z,64.27
2019-05-01T10:33:04.937Z,53.45
2019-05-01T10:37:13.423Z,46.93
2019-05-01T10:41:21.909Z,50.10
2019-05-01T10:45:50.146Z,44.50
2019-05-01T10:49:58.630Z,41.67
2019-05-01T10:54:07.082Z,41.37
2019-05-01T10:58:17.976Z,42.10
2019-05-01T11:02:25.783Z,45.30
2019-05-01T11:06:34.385Z,45.73
2019-05-01T11:10:42.883Z,44.50
2019-05-01T11:14:51.388Z,47.33
2019-05-01T11:18:59.855Z,41.47
2019-05-01T11:23:08.306Z,44.20
2019-05-01T11:27:16.851Z,42.27
2019-05-01T11:31:36.167Z,42.90
2019-05-01T11:36:08.353Z,44.03
2019-05-01T11:40:24.248Z,44.80
2019-05-01T11:44:32.744Z,43.80
2019-05-01T11:48:44.256Z,48.40
2019-05-01T11:53:03.798Z,42.93
2019-05-01T11:57:12.766Z,46.50
2019-05-01T12:01:22.873Z,49.37
2019-05-01T12:05:31.348Z,50.73
2019-05-01T12:09:40.063Z,45.33
2019-05-01T12:13:48.550Z,47.83
2019-05-01T12:17:56.994Z,42.80
2019-05-01T12:22:05.469Z,46.73
2019-05-01T12:26:13.976Z,49.27
2019-05-01T12:30:22.992Z,49.53
2019-05-01T12:34:31.479Z,48.13
2019-05-01T12:38:39.973Z,42.27
2019-05-01T12:42:48.527Z,46.13
2019-05-01T12:47:13.929Z,43.97
2019-05-01T12:51:22.424Z,42.87
2019-05-01T12:55:32.538Z,48.70
2019-05-01T12:59:41.026Z,49.53
2019-05-01T13:03:49.520Z,46.33
2019-05-01T13:07:58.006Z,47.20
2019-05-01T13:12:06.570Z,44.70
2019-05-01T13:16:15.073Z,44.73
2019-05-01T13:20:23.518Z,48.70
2019-05-01T13:24:51.358Z,47.53
2019-05-01T13:29:01.484Z,50.00
2019-05-01T13:33:10.031Z,48.40
2019-05-01T13:37:18.501Z,42.53
2019-05-01T13:41:27.004Z,56.93
2019-05-01T13:45:35.571Z,47.07
2019-05-01T13:49:44.104Z,44.67
2019-05-01T13:53:52.588Z,46.73
2019-05-01T13:58:01.081Z,45.40
2019-05-01T14:02:09.897Z,44.50
2019-05-01T14:06:18.385Z,44.40
2019-05-01T14:10:26.995Z,48.70
2019-05-01T14:14:35.485Z,43.50
2019-05-01T14:18:43.934Z,53.97
2019-05-01T14:22:54.091Z,47.43
2019-05-01T14:27:02.546Z,51.73
2019-05-01T14:31:11.115Z,50.83
2019-05-01T14:35:19.842Z,46.40
2019-05-01T14:39:28.567Z,51.13
2019-05-01T14:43:37.056Z,49.00
2019-05-01T14:47:45.527Z,55.97
2019-05-01T14:51:54.014Z,48.00
2019-05-01T14:56:02.525Z,53.70
2019-05-01T15:00:11.746Z,45.70
2019-05-01T15:04:20.313Z,48.47
2019-05-01T15:08:28.803Z,55.00
2019-05-01T15:12:37.324Z,51.23
2019-05-01T15:16:49.885Z,42.60
2019-05-01T15:21:19.328Z,47.13
2019-05-01T15:25:27.806Z,55.57
2019-05-01T15:29:36.624Z,53.07
2019-05-01T15:33:45.108Z,53.33
2019-05-01T15:37:56.825Z,51.60
2019-05-01T15:42:11.287Z,53.10
2019-05-01T15:46:23.434Z,55.03
2019-05-01T15:50:32.186Z,58.20
2019-05-01T15:54:40.672Z,53.73
2019-05-01T15:58:49.170Z,55.73
2019-05-01T16:02:57.880Z,51.67
2019-05-01T16:07:06.712Z,58.73
2019-05-01T16:11:31.819Z,51.30
2019-05-01T16:15:40.379Z,53.10
2019-05-01T16:19:48.858Z,50.97
2019-05-01T16:23:57.342Z,56.60
2019-05-01T16:28:05.790Z,55.13
2019-05-01T16:32:14.279Z,51.63
2019-05-01T16:36:22.741Z,49.60
2019-05-01T16:40:38.464Z,48.77
2019-05-01T16:44:46.919Z,55.40
2019-05-01T16:48:55.405Z,60.63
2019-05-01T16:53:03.958Z,55.07
2019-05-01T16:57:13.846Z,51.20
2019-05-01T17:01:24.310Z,51.93
2019-05-01T17:10:14.465Z,52.07
2019-05-01T17:14:23.109Z,58.77
2019-05-01T17:18:31.667Z,58.17
2019-05-01T17:22:40.166Z,50.47
2019-05-01T17:26:53.536Z,51.47
2019-05-01T17:31:02.032Z,49.30
2019-05-01T17:35:10.591Z,53.60
2019-05-01T17:39:19.301Z,48.37
2019-05-01T17:43:27.824Z,50.23
2019-05-01T17:47:36.275Z,52.23
2019-05-01T17:51:46.313Z,55.47
2019-05-01T17:55:55.271Z,59.40
2019-05-01T18:00:08.003Z,52.40
2019-05-01T18:04:27.331Z,53.90
2019-05-01T18:08:35.827Z,63.10
2019-05-01T18:12:44.559Z,52.80
2019-05-01T18:16:53.531Z,55.47
2019-05-01T18:21:02.172Z,52.30
2019-05-01T18:25:21.824Z,51.50
2019-05-01T18:29:35.562Z,64.10
2019-05-01T18:33:42.476Z,56.87
2019-05-01T18:37:52.641Z,54.83
2019-05-01T18:42:02.765Z,51.10
2019-05-01T18:46:13.087Z,57.57
2019-05-01T18:50:21.567Z,55.97
2019-05-01T18:54:30.398Z,58.70
2019-05-01T18:58:40.596Z,65.77
2019-05-01T19:02:49.314Z,61.43
2019-05-01T19:06:57.806Z,63.60
2019-05-01T19:11:12.638Z,56.90
2019-05-01T19:15:16.768Z,58.40
2019-05-01T19:19:25.315Z,70.40
2019-05-01T19:23:33.764Z,74.63
2019-05-01T19:27:42.253Z,66.77
2019-05-01T19:31:50.803Z,58.30
2019-05-01T19:36:02.505Z,58.67
2019-05-01T19:40:09.947Z,70.77
2019-05-01T19:44:20.015Z,60.67
2019-05-01T19:48:28.773Z,62.67
2019-05-01T19:52:37.833Z,64.37
2019-05-01T19:56:47.447Z,62.10
2019-05-01T20:00:58.056Z,60.97
2019-05-01T20:05:10.961Z,53.23
2019-05-01T20:09:18.747Z,58.33
2019-05-01T20:13:46.604Z,59.10
2019-05-01T20:17:55.059Z,67.30
2019-05-01T20:22:03.611Z,64.20
2019-05-01T20:26:12.091Z,58.13
2019-05-01T20:30:20.695Z,65.60
2019-05-01T20:34:29.431Z,61.17
2019-05-01T20:38:37.926Z,61.57
2019-05-01T20:42:46.381Z,61.10
2019-05-01T20:46:58.465Z,64.43
2019-05-01T20:51:05.471Z,61.27
2019-05-01T20:55:14.195Z,54.97
2019-05-01T20:59:22.670Z,55.93
2019-05-01T21:03:31.655Z,53.70
2019-05-01T21:07:41.800Z,60.90
2019-05-01T21:12:04.667Z,54.40
2019-05-01T21:16:03.819Z,54.50
2019-05-01T21:20:13.428Z,51.10
2019-05-01T21:24:23.926Z,56.40
2019-05-01T21:28:33.946Z,55.30
2019-05-01T21:32:44.316Z,51.43
2019-05-01T21:36:54.043Z,53.20
2019-05-01T21:41:02.892Z,49.40
2019-05-01T21:45:12.715Z,51.33
2019-05-01T21:49:22.931Z,49.27
2019-05-01T21:53:32.815Z,50.97
2019-05-01T21:57:41.556Z,53.30
2019-05-01T22:01:50.036Z,48.53
2019-05-01T22:05:58.507Z,47.63
2019-05-01T22:10:08.199Z,52.00
2019-05-01T22:14:31.130Z,48.07
2019-05-01T22:18:41.900Z,56.47
2019-05-01T22:22:52.175Z,53.13
2019-05-01T22:27:20.507Z,58.23
2019-05-01T22:31:33.391Z,50.50
2019-05-01T22:35:43.862Z,48.30
2019-05-01T22:44:18.044Z,51.30
2019-05-01T22:48:24.312Z,50.03
2019-05-01T22:52:32.804Z,48.00
2019-05-01T22:56:41.292Z,52.23
2019-05-01T23:00:54.410Z,52.80
2019-05-01T23:05:03.012Z,46.87
2019-05-01T23:09:13.584Z,55.97
2019-05-01T23:13:22.063Z,51.13
2019-05-01T23:17:34.955Z,45.63
2019-05-01T23:21:45.874Z,46.13
2019-05-01T23:25:52.608Z,48.27
2019-05-01T23:30:02.646Z,52.47
2019-05-01T23:34:11.182Z,45.40
2019-05-01T23:38:19.669Z,49.00
2019-05-01T23:42:28.162Z,51.03
2019-05-01T23:46:36.624Z,50.87
2019-05-01T23:50:45.160Z,55.03
2019-05-01T23:54:53.968Z,44.23
2019-05-01T23:59:02.448Z,52.83
